Time;durP1;ratioP1;P1;durP2;ratioP2;P2;SDS_P1;SDS_P2;PMS_P1;PMS_P2;Temp;Humidity;BMP_temperature;BMP_pressure;BME280_temperature;BME280_humidity;BME280_pressure;Samples;Min_cycle;Max_cycle;Signal;HPM_P1;HPM_P2
2023/11/11 00:02:13;;;;;;;0.82;0.47;;;5.30;1.00;;;;;;6203940;23;20020;-84
2023/11/11 00:04:39;;;;;;;1.40;0.80;;;5.30;1.00;;;;;;6225524;23;20028;-84
2023/11/11 00:07:06;;;;;;;1.10;0.60;;;5.20;1.00;;;;;;6205433;23;20082;-83
2023/11/11 00:09:33;;;;;;;0.95;0.70;;;5.20;55.10;;;;;;6206111;23;20046;-84
2023/11/11 00:12:02;;;;;;;1.10;0.60;;;5.20;90.60;;;;;;6231159;23;20091;-82
2023/11/11 00:14:29;;;;;;;0.77;0.50;;;5.20;99.90;;;;;;6182880;23;20028;-83
2023/11/11 00:16:56;;;;;;;0.65;0.65;;;5.20;99.90;;;;;;6202295;23;20382;-83
2023/11/11 00:19:24;;;;;;;0.75;0.55;;;5.20;99.90;;;;;;6203612;23;20046;-83
2023/11/11 00:21:53;;;;;;;0.40;0.40;;;5.10;99.90;;;;;;6203430;23;20028;-84
2023/11/11 00:24:20;;;;;;;0.73;0.45;;;5.10;99.90;;;;;;6229995;23;20215;-83
2023/11/11 00:26:48;;;;;;;0.50;0.50;;;5.10;99.90;;;;;;6180326;23;20024;-84
2023/11/11 00:29:16;;;;;;;0.90;0.52;;;5.10;99.90;;;;;;6230286;23;20482;-83
2023/11/11 00:31:47;;;;;;;0.47;0.38;;;5.10;99.90;;;;;;6206711;23;20091;-83
2023/11/11 00:34:15;;;;;;;0.50;0.35;;;5.10;99.90;;;;;;6183800;23;20020;-83
2023/11/11 00:36:42;;;;;;;0.77;0.40;;;5.10;99.90;;;;;;6206517;23;20024;-84
2023/11/11 00:39:12;;;;;;;0.55;0.50;;;5.10;99.90;;;;;;6182949;23;20024;-83
2023/11/11 00:41:41;;;;;;;1.73;0.70;;;5.10;99.90;;;;;;6234543;23;20059;-84
2023/11/11 00:44:09;;;;;;;0.75;0.30;;;5.10;1.00;;;;;;6234659;23;20281;-84
2023/11/11 00:46:39;;;;;;;1.15;0.50;;;5.10;1.00;;;;;;6208483;23;20059;-83
2023/11/11 00:49:07;;;;;;;0.75;0.43;;;5.10;1.00;;;;;;6208787;23;20051;-83
2023/11/11 00:51:36;;;;;;;0.70;0.43;;;5.10;1.00;;;;;;6231684;23;20032;-83
2023/11/11 00:54:05;;;;;;;0.77;0.50;;;5.10;1.00;;;;;;6234061;23;20508;-83
2023/11/11 00:56:32;;;;;;;0.40;0.30;;;5.10;1.00;;;;;;6232677;23;20384;-82
2023/11/11 00:58:59;;;;;;;0.55;0.47;;;5.10;1.00;;;;;;6206881;23;20020;-82
2023/11/11 01:01:25;;;;;;;0.43;0.25;;;5.00;13.00;;;;;;6206927;23;20024;-82
2023/11/11 01:03:52;;;;;;;0.70;0.30;;;5.00;48.60;;;;;;6232508;23;20035;-82
2023/11/11 01:06:19;;;;;;;1.05;0.50;;;5.00;74.10;;;;;;6206161;23;20099;-82
2023/11/11 01:08:47;;;;;;;0.50;0.50;;;5.00;99.90;;;;;;6207698;23;20035;-83
2023/11/11 01:11:14;;;;;;;0.40;0.40;;;5.00;99.90;;;;;;6208066;23;20316;-84
2023/11/11 01:13:41;;;;;;;0.60;0.40;;;5.00;99.90;;;;;;6233125;23;20020;-84
2023/11/11 01:16:08;;;;;;;0.73;0.35;;;5.00;99.90;;;;;;6232332;23;20510;-83
2023/11/11 01:18:34;;;;;;;0.30;0.30;;;5.00;99.90;;;;;;6233534;23;20020;-84
2023/11/11 01:21:04;;;;;;;0.57;0.40;;;5.00;99.90;;;;;;6232851;23;20031;-83
2023/11/11 01:23:33;;;;;;;0.70;0.40;;;5.00;1.00;;;;;;6222153;23;20023;-84
2023/11/11 01:26:01;;;;;;;0.50;0.50;;;5.00;1.00;;;;;;6233481;23;20466;-84
2023/11/11 01:28:29;;;;;;;0.70;0.60;;;5.00;1.00;;;;;;6207987;23;20099;-84
2023/11/11 01:30:56;;;;;;;0.73;0.65;;;5.00;1.00;;;;;;6182632;23;20024;-83
2023/11/11 01:33:24;;;;;;;0.90;0.70;;;5.00;99.90;;;;;;6182566;23;20034;-84
2023/11/11 01:35:51;;;;;;;0.90;0.50;;;5.00;99.90;;;;;;6205988;23;20024;-83
2023/11/11 01:38:18;;;;;;;0.45;0.40;;;5.10;99.90;;;;;;6234148;23;20101;-83
2023/11/11 01:40:45;;;;;;;0.77;0.40;;;5.10;99.90;;;;;;6207036;23;20371;-83
2023/11/11 01:43:12;;;;;;;0.77;0.30;;;5.10;99.90;;;;;;6232433;23;20024;-83
2023/11/11 01:45:42;;;;;;;0.57;0.50;;;5.10;99.90;;;;;;6181586;23;20029;-82
2023/11/11 01:48:13;;;;;;;0.40;0.40;;;5.10;99.90;;;;;;6206562;23;20016;-83
2023/11/11 01:50:43;;;;;;;0.47;0.47;;;5.10;99.90;;;;;;6180559;23;20020;-83
2023/11/11 01:53:11;;;;;;;0.30;0.30;;;5.10;99.90;;;;;;6182218;23;20024;-83
2023/11/11 01:55:38;;;;;;;0.75;0.32;;;5.00;99.90;;;;;;6182938;23;20039;-83
2023/11/11 01:58:05;;;;;;;0.20;0.20;;;5.00;96.70;;;;;;6232677;23;20020;-83
2023/11/11 02:00:33;;;;;;;0.38;0.32;;;5.00;73.90;;;;;;6182369;23;20024;-82
2023/11/11 02:02:59;;;;;;;1.23;0.40;;;4.90;41.30;;;;;;6206924;23;20024;-82
2023/11/11 02:05:26;;;;;;;0.32;0.30;;;4.90;99.90;;;;;;6232092;23;20024;-83
2023/11/11 02:07:53;;;;;;;0.22;0.22;;;4.90;99.90;;;;;;6232091;23;20275;-83
2023/11/11 02:10:20;;;;;;;0.28;0.28;;;4.80;99.90;;;;;;6233367;23;20024;-83
2023/11/11 02:12:48;;;;;;;0.75;0.50;;;4.90;99.90;;;;;;6207218;23;20118;-82
2023/11/11 02:15:15;;;;;;;0.40;0.40;;;4.90;1.00;;;;;;6207082;23;20024;-83
2023/11/11 02:17:42;;;;;;;0.75;0.57;;;4.90;1.00;;;;;;6202917;23;20035;-83
2023/11/11 02:20:11;;;;;;;1.05;0.68;;;4.90;1.00;;;;;;6227192;23;20020;-83
2023/11/11 02:22:39;;;;;;;0.20;0.20;;;4.90;1.00;;;;;;6182326;23;20107;-83
2023/11/11 02:25:08;;;;;;;0.30;0.30;;;4.90;1.00;;;;;;6205595;23;20039;-82
2023/11/11 02:27:35;;;;;;;0.30;0.30;;;4.80;1.00;;;;;;6232560;23;20135;-83
2023/11/11 02:30:03;;;;;;;0.40;0.40;;;4.80;1.00;;;;;;6231431;23;20026;-83
2023/11/11 02:32:33;;;;;;;0.43;0.30;;;4.80;1.00;;;;;;6209703;23;20058;-82
2023/11/11 02:35:01;;;;;;;1.08;0.40;;;4.70;1.00;;;;;;6233761;23;20035;-82
2023/11/11 02:37:28;;;;;;;0.38;0.30;;;4.70;2.70;;;;;;6237096;23;20505;-83
2023/11/11 02:39:56;;;;;;;0.20;0.20;;;4.70;32.50;;;;;;6209897;23;20344;-83
2023/11/11 02:42:23;;;;;;;0.20;0.20;;;4.70;67.90;;;;;;6235861;23;20032;-83
2023/11/11 02:44:50;;;;;;;0.30;0.30;;;4.70;99.90;;;;;;6236499;23;20058;-83
2023/11/11 02:47:18;;;;;;;0.30;0.30;;;4.60;99.90;;;;;;6210423;23;20024;-82
2023/11/11 02:49:46;;;;;;;0.95;0.40;;;4.60;99.90;;;;;;6234349;23;20773;-83
2023/11/11 02:52:14;;;;;;;0.32;0.30;;;4.70;99.90;;;;;;6235865;23;20382;-84
2023/11/11 02:54:41;;;;;;;0.80;0.60;;;4.60;99.90;;;;;;6235545;23;20050;-83
2023/11/11 02:57:10;;;;;;;0.40;0.30;;;4.70;1.00;;;;;;6236101;23;20024;-83
2023/11/11 02:59:39;;;;;;;0.50;0.30;;;4.70;1.00;;;;;;6210714;23;20544;-83
2023/11/11 03:02:08;;;;;;;0.30;0.30;;;4.70;1.00;;;;;;6211433;23;20511;-83
2023/11/11 03:04:38;;;;;;;0.52;0.40;;;4.70;1.00;;;;;;6235097;23;20079;-84
2023/11/11 03:07:07;;;;;;;0.65;0.40;;;4.70;99.90;;;;;;6186283;23;20475;-83
2023/11/11 03:09:38;;;;;;;0.40;0.30;;;4.70;99.90;;;;;;6236743;23;20020;-83
2023/11/11 03:12:05;;;;;;;0.50;0.40;;;4.70;99.90;;;;;;6210216;23;20410;-83
2023/11/11 03:14:33;;;;;;;0.85;0.40;;;4.70;99.90;;;;;;6234386;23;20031;-83
2023/11/11 03:17:00;;;;;;;0.68;0.45;;;4.70;99.90;;;;;;6185293;23;20024;-82
2023/11/11 03:19:27;;;;;;;0.22;0.22;;;4.70;99.90;;;;;;6233777;23;20036;-82
2023/11/11 03:21:55;;;;;;;1.33;0.70;;;4.70;99.90;;;;;;6209997;23;20086;-83
2023/11/11 03:24:23;;;;;;;0.40;0.30;;;4.70;99.90;;;;;;6209666;23;20020;-82
2023/11/11 03:26:49;;;;;;;0.77;0.47;;;4.70;99.90;;;;;;6186143;23;20380;-83
2023/11/11 03:29:16;;;;;;;0.32;0.32;;;4.70;99.90;;;;;;6237849;23;20379;-82
2023/11/11 03:31:44;;;;;;;0.38;0.30;;;4.70;99.90;;;;;;6236678;23;20032;-82
2023/11/11 03:34:11;;;;;;;0.55;0.40;;;4.70;99.90;;;;;;6234817;23;20116;-83
2023/11/11 03:36:40;;;;;;;0.35;0.20;;;4.70;99.90;;;;;;6210904;23;20222;-83
2023/11/11 03:39:06;;;;;;;0.52;0.40;;;4.70;99.90;;;;;;6187406;23;20127;-81
2023/11/11 03:41:33;;;;;;;0.55;0.43;;;4.80;99.90;;;;;;6212819;23;20020;-82
2023/11/11 03:44:02;;;;;;;0.30;0.30;;;4.80;99.90;;;;;;6240925;23;20030;-82
2023/11/11 03:46:29;;;;;;;0.60;0.40;;;4.80;99.90;;;;;;6214171;23;20020;-82
2023/11/11 03:48:57;;;;;;;0.88;0.50;;;4.80;99.90;;;;;;6238964;23;20086;-82
2023/11/11 03:51:25;;;;;;;1.15;0.50;;;4.80;99.90;;;;;;6212695;23;20020;-83
2023/11/11 03:53:52;;;;;;;0.95;0.47;;;4.80;99.90;;;;;;6214740;23;20028;-84
2023/11/11 03:56:20;;;;;;;0.60;0.30;;;4.80;99.90;;;;;;6242597;23;20024;-84
2023/11/11 03:58:47;;;;;;;0.50;0.50;;;4.80;99.90;;;;;;6215966;23;20050;-83
2023/11/11 04:01:16;;;;;;;0.60;0.50;;;4.80;99.90;;;;;;6217193;23;20028;-84
2023/11/11 04:03:44;;;;;;;0.70;0.52;;;4.80;99.90;;;;;;6216507;23;20320;-83
2023/11/11 04:06:12;;;;;;;0.40;0.32;;;4.80;99.90;;;;;;6190151;23;20099;-84
2023/11/11 04:08:40;;;;;;;0.85;0.45;;;4.80;99.90;;;;;;6241522;23;20580;-84
2023/11/11 04:11:08;;;;;;;0.60;0.40;;;4.80;99.90;;;;;;6216117;23;20423;-83
2023/11/11 04:13:40;;;;;;;0.45;0.40;;;4.70;99.90;;;;;;6216121;23;20323;-83
2023/11/11 04:16:10;;;;;;;0.50;0.43;;;4.70;99.90;;;;;;6214265;23;20020;-84
2023/11/11 04:18:39;;;;;;;0.73;0.40;;;4.70;99.90;;;;;;6215744;23;20024;-83
2023/11/11 04:21:06;;;;;;;0.47;0.40;;;4.60;99.90;;;;;;6240520;23;20016;-81
2023/11/11 04:23:34;;;;;;;0.40;0.40;;;4.60;99.90;;;;;;6238224;23;20020;-82
2023/11/11 04:26:03;;;;;;;0.47;0.47;;;4.60;99.90;;;;;;6213261;23;20024;-83
2023/11/11 04:28:30;;;;;;;0.45;0.40;;;4.60;99.90;;;;;;6240048;23;20485;-82
2023/11/11 04:30:57;;;;;;;0.52;0.40;;;4.50;99.90;;;;;;6212903;23;20020;-82
2023/11/11 04:33:24;;;;;;;0.50;0.50;;;4.50;99.90;;;;;;6238513;23;20020;-82
2023/11/11 04:35:51;;;;;;;0.40;0.30;;;4.50;99.90;;;;;;6211369;23;20034;-82
2023/11/11 04:38:19;;;;;;;0.20;0.20;;;4.50;1.00;;;;;;6213173;23;20021;-81
2023/11/11 04:40:49;;;;;;;0.47;0.40;;;4.50;1.00;;;;;;6239807;23;20058;-82
2023/11/11 04:43:18;;;;;;;0.35;0.32;;;4.50;1.00;;;;;;6214766;23;20042;-83
2023/11/11 04:45:45;;;;;;;0.30;0.30;;;4.50;1.00;;;;;;6239093;23;20020;-83
2023/11/11 04:48:14;;;;;;;0.40;0.40;;;4.50;1.00;;;;;;6239363;23;20047;-82
2023/11/11 04:50:42;;;;;;;0.45;0.43;;;4.50;1.00;;;;;;6239033;23;20027;-83
2023/11/11 04:53:09;;;;;;;0.20;0.20;;;4.50;1.00;;;;;;6212749;23;20027;-82
2023/11/11 04:55:36;;;;;;;0.50;0.40;;;4.50;1.00;;;;;;6212981;23;20461;-82
2023/11/11 04:58:04;;;;;;;0.25;0.17;;;4.40;1.00;;;;;;6238588;23;20020;-83
2023/11/11 05:00:31;;;;;;;0.65;0.47;;;4.40;1.00;;;;;;6239670;23;20042;-82
2023/11/11 05:03:00;;;;;;;0.47;0.40;;;4.40;1.00;;;;;;6237968;23;20016;-82
2023/11/11 05:05:27;;;;;;;0.38;0.32;;;4.40;1.00;;;;;;6211613;23;20051;-83
2023/11/11 05:07:55;;;;;;;0.20;0.20;;;4.40;1.00;;;;;;6238331;23;20021;-83
2023/11/11 05:10:23;;;;;;;0.35;0.32;;;4.40;1.00;;;;;;6237686;23;20466;-82
2023/11/11 05:12:53;;;;;;;0.20;0.20;;;4.30;6.30;;;;;;6238535;23;20354;-82
2023/11/11 05:15:23;;;;;;;0.22;0.22;;;4.30;5.40;;;;;;6239162;23;20031;-82
2023/11/11 05:17:52;;;;;;;0.40;0.40;;;4.30;1.00;;;;;;6213157;23;20024;-82
2023/11/11 05:20:19;;;;;;;0.20;0.20;;;4.30;36.00;;;;;;6237185;23;20039;-82
2023/11/11 05:22:46;;;;;;;0.55;0.30;;;4.30;49.60;;;;;;6239489;23;20020;-82
2023/11/11 05:25:13;;;;;;;0.60;0.38;;;4.30;3.20;;;;;;6237216;23;20023;-81
2023/11/11 05:27:39;;;;;;;0.30;0.30;;;4.20;1.00;;;;;;6212633;23;20383;-82
2023/11/11 05:30:08;;;;;;;0.80;0.40;;;4.20;1.00;;;;;;6212204;23;20024;-82
2023/11/11 05:32:36;;;;;;;0.22;0.20;;;4.10;1.00;;;;;;6237574;23;20020;-82
2023/11/11 05:35:04;;;;;;;0.40;0.28;;;4.10;1.00;;;;;;6210495;23;20078;-81
2023/11/11 05:37:31;;;;;;;0.30;0.28;;;4.00;1.00;;;;;;6213009;23;20028;-82
2023/11/11 05:39:58;;;;;;;0.28;0.28;;;4.00;1.00;;;;;;6186881;23;20020;-82
2023/11/11 05:42:26;;;;;;;0.60;0.30;;;4.00;1.00;;;;;;6237587;23;20092;-82
2023/11/11 05:44:53;;;;;;;0.43;0.30;;;4.00;1.00;;;;;;6237039;23;20026;-82
2023/11/11 05:47:20;;;;;;;0.10;0.10;;;4.00;14.30;;;;;;6212474;23;20016;-81
2023/11/11 05:49:48;;;;;;;0.47;0.30;;;4.00;99.90;;;;;;6206909;23;20100;-82
2023/11/11 05:52:15;;;;;;;0.20;0.20;;;4.10;99.90;;;;;;6208973;23;20016;-82
2023/11/11 05:54:42;;;;;;;0.30;0.20;;;4.20;99.90;;;;;;6207778;23;20024;-82
2023/11/11 05:57:09;;;;;;;0.10;0.10;;;4.20;99.90;;;;;;6235865;23;20024;-82
2023/11/11 05:59:36;;;;;;;0.30;0.28;;;4.20;99.90;;;;;;6234803;23;20039;-81
2023/11/11 06:02:04;;;;;;;0.20;0.20;;;4.20;99.90;;;;;;6209316;23;20024;-82
2023/11/11 06:04:35;;;;;;;0.20;0.20;;;4.20;99.90;;;;;;6217193;23;20078;-81
2023/11/11 06:07:04;;;;;;;0.10;0.10;;;4.20;99.90;;;;;;6207433;23;20436;-82
2023/11/11 06:09:32;;;;;;;0.30;0.30;;;4.10;99.90;;;;;;6232818;23;20107;-81
2023/11/11 06:11:59;;;;;;;0.20;0.20;;;4.20;99.90;;;;;;6233834;23;20214;-83
2023/11/11 06:14:26;;;;;;;0.32;0.32;;;4.10;99.90;;;;;;6232558;23;20074;-82
2023/11/11 06:16:53;;;;;;;0.30;0.30;;;4.10;99.90;;;;;;6207249;23;20016;-82
2023/11/11 06:19:20;;;;;;;0.20;0.20;;;4.10;99.90;;;;;;6234184;23;20028;-83
2023/11/11 06:21:47;;;;;;;0.43;0.25;;;4.10;99.90;;;;;;6205573;23;20024;-83
2023/11/11 06:24:15;;;;;;;0.30;0.30;;;4.10;1.00;;;;;;6206612;23;20331;-82
2023/11/11 06:26:42;;;;;;;0.20;0.20;;;4.10;1.00;;;;;;6233140;23;20097;-83
2023/11/11 06:29:09;;;;;;;0.20;0.20;;;4.20;1.00;;;;;;6232786;23;20044;-83
2023/11/11 06:31:36;;;;;;;0.45;0.30;;;4.20;1.00;;;;;;6206422;23;20016;-83
2023/11/11 06:34:04;;;;;;;0.45;0.30;;;4.20;21.60;;;;;;6232654;23;20099;-83
2023/11/11 06:36:31;;;;;;;0.25;0.25;;;4.20;65.40;;;;;;6232895;23;20020;-83
2023/11/11 06:38:58;;;;;;;0.10;0.10;;;4.30;99.90;;;;;;6179529;23;20020;-83
2023/11/11 06:41:25;;;;;;;0.25;0.25;;;4.30;99.90;;;;;;6233219;23;20024;-83
2023/11/11 06:43:52;;;;;;;0.40;0.40;;;4.30;99.90;;;;;;6206131;23;20443;-83
2023/11/11 06:46:19;;;;;;;0.22;0.20;;;4.30;99.90;;;;;;6182066;23;20024;-83
2023/11/11 06:48:46;;;;;;;0.38;0.22;;;4.30;99.90;;;;;;6232335;23;20431;-83
2023/11/11 06:51:13;;;;;;;0.20;0.20;;;4.40;99.90;;;;;;6205889;23;20020;-83
2023/11/11 06:53:40;;;;;;;0.28;0.20;;;4.40;99.90;;;;;;6210097;23;20024;-83
2023/11/11 06:56:07;;;;;;;0.13;0.13;;;4.40;99.90;;;;;;6209143;23;20020;-82
2023/11/11 06:58:34;;;;;;;0.32;0.30;;;4.40;99.90;;;;;;6234281;23;20373;-82
2023/11/11 07:01:01;;;;;;;0.30;0.28;;;4.50;99.90;;;;;;6232921;23;20411;-82
2023/11/11 07:03:28;;;;;;;0.15;0.15;;;4.40;99.90;;;;;;6204533;23;20016;-82
2023/11/11 07:05:56;;;;;;;0.30;0.30;;;4.50;99.90;;;;;;6229767;23;20090;-82
2023/11/11 07:08:23;;;;;;;0.57;0.40;;;4.50;99.90;;;;;;6230742;23;20451;-83
2023/11/11 07:10:51;;;;;;;0.28;0.25;;;4.40;99.90;;;;;;6208559;23;20026;-82
2023/11/11 07:13:20;;;;;;;0.38;0.30;;;4.50;99.90;;;;;;6236580;23;20028;-82
2023/11/11 07:15:47;;;;;;;0.85;0.43;;;4.40;99.90;;;;;;6233625;23;20020;-82
2023/11/11 07:18:14;;;;;;;0.47;0.47;;;4.50;99.90;;;;;;6234454;23;20016;-83
2023/11/11 07:20:41;;;;;;;0.20;0.20;;;4.50;99.90;;;;;;6207550;23;20070;-82
2023/11/11 07:23:08;;;;;;;0.30;0.30;;;4.50;99.90;;;;;;6232143;23;20031;-82
2023/11/11 07:25:35;;;;;;;0.20;0.20;;;4.50;99.90;;;;;;6204518;23;20021;-82
2023/11/11 07:28:04;;;;;;;0.20;0.20;;;4.50;99.90;;;;;;6236567;23;20093;-82
2023/11/11 07:30:31;;;;;;;0.70;0.40;;;4.60;99.90;;;;;;6185205;23;20485;-82
2023/11/11 07:32:59;;;;;;;0.32;0.30;;;4.60;99.90;;;;;;6236228;23;20031;-74
2023/11/11 07:35:28;;;;;;;0.35;0.30;;;4.60;99.90;;;;;;6206715;23;20064;-74
2023/11/11 07:37:56;;;;;;;0.30;0.30;;;4.60;99.90;;;;;;6228938;23;20374;-74
2023/11/11 07:40:25;;;;;;;0.40;0.20;;;4.70;99.90;;;;;;6230119;23;20066;-74
2023/11/11 07:42:53;;;;;;;0.50;0.40;;;4.70;99.90;;;;;;6205902;23;20020;-74
2023/11/11 07:45:23;;;;;;;0.60;0.60;;;4.70;99.90;;;;;;6204369;23;20338;-75
2023/11/11 07:47:51;;;;;;;0.40;0.30;;;4.80;99.90;;;;;;6236477;23;20477;-74
2023/11/11 07:50:20;;;;;;;0.30;0.22;;;4.80;99.90;;;;;;6233968;23;20095;-74
2023/11/11 07:52:47;;;;;;;0.40;0.30;;;4.80;99.90;;;;;;6234522;23;20028;-74
2023/11/11 07:55:15;;;;;;;0.60;0.43;;;4.90;99.90;;;;;;6208044;23;20019;-75
2023/11/11 07:57:42;;;;;;;0.45;0.32;;;4.90;99.90;;;;;;6210346;23;20016;-74
2023/11/11 08:00:16;;;;;;;0.38;0.30;;;4.90;99.90;;;;;;6210903;23;20102;-75
2023/11/11 08:03:03;;;;;;;0.40;0.40;;;5.00;99.90;;;;;;6229624;23;20365;-84
2023/11/11 08:05:30;;;;;;;0.43;0.40;;;5.00;99.90;;;;;;6203424;23;20035;-76
2023/11/11 08:07:57;;;;;;;0.80;0.50;;;5.10;99.90;;;;;;6182681;23;20087;-75
2023/11/11 08:10:40;;;;;;;1.40;0.50;;;5.10;94.90;;;;;;6235337;23;20032;-75
2023/11/11 08:13:07;;;;;;;0.50;0.30;;;5.20;37.50;;;;;;6233887;23;20028;-75
2023/11/11 08:15:34;;;;;;;0.40;0.40;;;5.20;1.00;;;;;;6234178;23;20074;-75
2023/11/11 08:18:00;;;;;;;0.70;0.40;;;5.30;1.00;;;;;;6236073;23;20046;-75
2023/11/11 08:20:27;;;;;;;1.10;0.50;;;5.30;1.00;;;;;;6232768;23;20394;-76
2023/11/11 08:22:54;;;;;;;1.33;0.43;;;5.30;1.00;;;;;;6232094;23;20511;-75
2023/11/11 08:25:22;;;;;;;0.35;0.35;;;5.30;99.90;;;;;;6235531;23;20071;-75
2023/11/11 08:27:50;;;;;;;1.70;0.35;;;5.40;99.90;;;;;;6209808;23;20062;-75
2023/11/11 08:30:17;;;;;;;0.50;0.40;;;5.40;99.90;;;;;;6235630;23;20135;-76
2023/11/11 08:32:44;;;;;;;1.05;0.68;;;5.40;99.90;;;;;;6210257;23;20023;-76
2023/11/11 08:35:14;;;;;;;1.08;0.80;;;5.50;94.90;;;;;;6235503;23;20028;-75
2023/11/11 08:37:44;;;;;;;0.80;0.52;;;5.50;99.90;;;;;;6210373;23;20489;-76
2023/11/11 08:40:12;;;;;;;1.02;0.65;;;5.50;99.90;;;;;;6208411;23;20083;-75
2023/11/11 08:42:39;;;;;;;0.65;0.60;;;5.50;99.90;;;;;;6237444;23;20024;-76
2023/11/11 08:45:09;;;;;;;0.70;0.47;;;5.60;99.90;;;;;;6234910;23;20024;-76
2023/11/11 08:47:37;;;;;;;1.00;0.60;;;5.60;99.90;;;;;;6209059;23;20016;-85
2023/11/11 08:50:12;;;;;;;0.80;0.65;;;5.70;99.90;;;;;;6239667;23;20038;-86
2023/11/11 08:52:42;;;;;;;0.88;0.43;;;5.70;14.80;;;;;;6187723;23;20109;-86
2023/11/11 08:55:09;;;;;;;0.75;0.50;;;5.80;1.00;;;;;;6212977;23;20024;-85
2023/11/11 08:57:36;;;;;;;0.98;0.63;;;5.80;99.90;;;;;;6212691;23;20115;-85
2023/11/11 09:00:08;;;;;;;0.35;0.35;;;5.90;99.90;;;;;;6211669;23;20024;-84
2023/11/11 09:02:35;;;;;;;1.17;0.60;;;5.90;99.90;;;;;;6212844;23;20024;-85
2023/11/11 09:05:04;;;;;;;0.57;0.50;;;5.90;99.90;;;;;;6185610;23;20099;-85
2023/11/11 09:07:36;;;;;;;1.33;0.60;;;6.00;62.30;;;;;;6223805;23;20111;-85
2023/11/11 09:10:03;;;;;;;0.50;0.32;;;6.00;1.00;;;;;;6235953;23;20024;-86
2023/11/11 09:12:31;;;;;;;0.63;0.40;;;6.10;1.00;;;;;;6181736;23;20126;-85
2023/11/11 09:14:58;;;;;;;1.23;0.50;;;6.20;99.90;;;;;;6205173;23;20035;-85
2023/11/11 09:17:25;;;;;;;0.75;0.55;;;6.20;99.90;;;;;;6229986;23;20039;-85
2023/11/11 09:19:51;;;;;;;0.90;0.80;;;6.20;16.90;;;;;;6228286;23;20368;-85
2023/11/11 09:22:19;;;;;;;0.77;0.40;;;6.20;1.00;;;;;;6205339;23;20024;-84
2023/11/11 09:24:46;;;;;;;0.90;0.60;;;6.30;99.90;;;;;;6230540;23;20381;-81
2023/11/11 09:27:14;;;;;;;1.95;0.90;;;6.40;99.90;;;;;;6201769;23;20047;-74
2023/11/11 09:29:42;;;;;;;0.98;0.77;;;6.40;1.00;;;;;;6224346;23;20034;-74
2023/11/11 09:32:11;;;;;;;0.70;0.50;;;6.50;1.00;;;;;;6229289;23;20028;-74
2023/11/11 09:34:42;;;;;;;1.55;0.88;;;6.50;99.90;;;;;;6226111;23;20028;-74
2023/11/11 09:37:10;;;;;;;1.13;0.73;;;6.60;39.50;;;;;;6226840;23;20263;-75
2023/11/11 09:39:37;;;;;;;1.20;0.70;;;6.70;1.00;;;;;;6228463;23;20075;-74
2023/11/11 09:42:05;;;;;;;1.17;0.60;;;6.70;1.00;;;;;;6201486;23;20024;-75
2023/11/11 09:44:34;;;;;;;1.45;1.00;;;6.80;99.90;;;;;;6229124;23;20031;-74
2023/11/11 09:47:04;;;;;;;1.80;0.90;;;6.90;99.90;;;;;;6230323;23;20131;-75
2023/11/11 09:49:32;;;;;;;1.13;0.85;;;6.90;1.00;;;;;;6204291;23;20054;-74
2023/11/11 09:51:59;;;;;;;1.05;0.65;;;7.00;1.00;;;;;;6207362;23;20729;-75
2023/11/11 09:54:26;;;;;;;0.50;0.50;;;7.00;1.00;;;;;;6181370;23;20087;-73
2023/11/11 09:56:53;;;;;;;0.70;0.40;;;7.10;1.00;;;;;;6207489;23;20031;-74
2023/11/11 09:59:22;;;;;;;1.25;1.00;;;7.10;99.90;;;;;;6211450;23;20102;-74
2023/11/11 10:01:51;;;;;;;1.33;0.70;;;7.20;99.90;;;;;;6210899;23;20024;-74
2023/11/11 10:04:19;;;;;;;1.52;0.73;;;7.20;99.90;;;;;;6185635;23;20086;-75
2023/11/11 10:06:46;;;;;;;1.10;0.80;;;7.30;74.20;;;;;;6209271;23;20107;-74
2023/11/11 10:09:17;;;;;;;1.85;0.90;;;7.30;74.60;;;;;;6210351;23;20319;-74
2023/11/11 10:11:45;;;;;;;1.15;0.70;;;7.30;9.20;;;;;;6235138;23;20095;-74
2023/11/11 10:14:15;;;;;;;1.83;0.93;;;7.40;46.30;;;;;;6209183;23;20027;-74
2023/11/11 10:16:42;;;;;;;1.70;0.88;;;7.40;1.00;;;;;;6236787;23;20027;-74
2023/11/11 10:19:12;;;;;;;1.13;0.80;;;7.50;1.00;;;;;;6236559;23;20114;-75
2023/11/11 10:21:39;;;;;;;1.13;0.70;;;7.50;1.00;;;;;;6233363;23;20086;-75
2023/11/11 10:24:08;;;;;;;1.08;0.73;;;7.50;1.00;;;;;;6234989;23;20021;-77
2023/11/11 10:26:35;;;;;;;0.60;0.50;;;7.60;1.00;;;;;;6210063;23;20026;-76
2023/11/11 10:29:08;;;;;;;1.48;0.80;;;7.70;1.00;;;;;;6234869;23;20020;-77
2023/11/11 10:31:38;;;;;;;1.30;0.80;;;7.70;1.00;;;;;;6235625;23;20077;-77
2023/11/11 10:34:05;;;;;;;1.23;0.60;;;7.80;1.00;;;;;;6210309;23;20027;-77
2023/11/11 10:36:42;;;;;;;1.02;0.65;;;7.80;99.90;;;;;;6233178;23;20024;-76
2023/11/11 10:39:10;;;;;;;0.57;0.50;;;7.80;99.90;;;;;;6234256;23;20020;-76
2023/11/11 10:41:39;;;;;;;2.17;0.75;;;7.90;99.90;;;;;;6235133;23;20099;-76
2023/11/11 10:44:07;;;;;;;1.45;0.90;;;7.90;99.90;;;;;;6210220;23;20027;-83
2023/11/11 10:46:36;;;;;;;1.23;0.57;;;8.00;99.90;;;;;;6210011;23;20517;-82
2023/11/11 10:49:04;;;;;;;1.13;0.60;;;8.00;99.90;;;;;;6211939;23;20020;-85
2023/11/11 10:51:31;;;;;;;1.35;0.90;;;8.20;99.90;;;;;;6185046;23;20393;-84
2023/11/11 10:54:00;;;;;;;1.48;0.80;;;8.20;99.90;;;;;;6235487;23;20024;-83
2023/11/11 10:56:28;;;;;;;0.90;0.63;;;8.30;99.90;;;;;;6185359;23;20056;-82
2023/11/11 10:58:56;;;;;;;2.72;0.90;;;8.30;99.90;;;;;;6184973;23;20497;-83
2023/11/11 11:01:24;;;;;;;0.65;0.52;;;8.30;99.90;;;;;;6233275;23;20028;-84
2023/11/11 11:03:51;;;;;;;1.95;0.90;;;8.40;99.90;;;;;;6206645;23;20082;-83
2023/11/11 11:06:30;;;;;;;2.00;1.30;;;8.40;99.90;;;;;;6181338;23;20094;-84
2023/11/11 11:09:06;;;;;;;1.25;0.75;;;8.50;99.90;;;;;;6234646;23;20459;-83
2023/11/11 11:11:41;;;;;;;1.13;0.65;;;8.50;99.90;;;;;;6235289;23;20027;-84
2023/11/11 11:14:11;;;;;;;1.10;0.68;;;8.60;99.90;;;;;;6237091;23;20016;-83
2023/11/11 11:16:38;;;;;;;0.85;0.52;;;8.70;99.90;;;;;;6209378;23;20020;-84
2023/11/11 11:19:32;;;;;;;0.98;0.55;;;8.80;99.90;;;;;;6179305;23;20258;-84
2023/11/11 11:21:59;;;;;;;0.70;0.50;;;8.80;99.90;;;;;;6228730;23;20474;-84
2023/11/11 11:24:26;;;;;;;1.40;0.68;;;8.90;99.90;;;;;;6177900;23;20013;-82
2023/11/11 11:26:53;;;;;;;0.98;0.77;;;9.00;99.90;;;;;;6203627;23;20074;-83
2023/11/11 11:29:21;;;;;;;0.95;0.70;;;9.00;99.90;;;;;;6203224;23;20532;-83
2023/11/11 11:32:07;;;;;;;1.58;0.80;;;9.10;99.90;;;;;;6176055;23;20533;-84
2023/11/11 11:34:36;;;;;;;2.03;0.85;;;9.20;99.90;;;;;;6202255;23;20393;-83
2023/11/11 11:37:12;;;;;;;1.55;0.90;;;9.30;99.90;;;;;;6228529;23;20068;-85
2023/11/11 11:40:08;;;;;;;1.50;0.90;;;9.40;99.90;;;;;;6203440;23;20024;-84
2023/11/11 11:42:36;;;;;;;3.08;1.38;;;9.50;99.90;;;;;;6203608;23;20262;-82
2023/11/11 11:45:04;;;;;;;1.10;0.70;;;9.60;99.90;;;;;;6203042;23;20028;-83
2023/11/11 11:47:33;;;;;;;2.42;1.20;;;9.70;99.90;;;;;;6178716;23;20028;-83
2023/11/11 11:50:00;;;;;;;0.95;0.80;;;9.90;99.90;;;;;;6201877;23;20127;-83
2023/11/11 11:52:27;;;;;;;1.25;0.75;;;10.10;92.90;;;;;;6203476;23;20314;-83
2023/11/11 11:54:54;;;;;;;1.83;0.93;;;10.30;74.50;;;;;;6227780;23;20056;-84
2023/11/11 11:57:25;;;;;;;1.48;0.80;;;10.40;56.90;;;;;;6228201;23;20034;-83
2023/11/11 12:00:13;;;;;;;0.93;0.75;;;10.60;48.40;;;;;;6228311;23;20024;-81
2023/11/11 12:02:41;;;;;;;1.65;0.75;;;10.80;35.40;;;;;;6181837;23;20028;-82
2023/11/11 12:05:08;;;;;;;0.63;0.60;;;10.80;23.40;;;;;;6178388;23;20452;-82
2023/11/11 12:07:37;;;;;;;0.98;0.68;;;11.00;20.20;;;;;;6179978;23;20024;-84
2023/11/11 12:10:09;;;;;;;2.40;1.05;;;11.20;16.50;;;;;;6205930;23;20093;-82
2023/11/11 12:12:39;;;;;;;1.00;0.70;;;11.20;9.80;;;;;;6206491;23;20414;-82
2023/11/11 12:15:10;;;;;;;1.38;1.27;;;11.30;7.70;;;;;;6203945;23;20664;-83
2023/11/11 12:17:42;;;;;;;1.10;0.80;;;11.50;3.90;;;;;;6205300;23;20083;-83
2023/11/11 12:20:13;;;;;;;0.50;0.50;;;11.80;1.80;;;;;;6180105;23;20459;-83
2023/11/11 12:22:44;;;;;;;0.75;0.55;;;12.10;1.00;;;;;;6181237;23;20608;-83
2023/11/11 12:25:11;;;;;;;0.50;0.50;;;12.20;1.00;;;;;;6229571;23;20024;-82
2023/11/11 12:27:38;;;;;;;0.50;0.50;;;12.40;1.00;;;;;;6205326;23;20024;-82
2023/11/11 12:30:18;;;;;;;0.63;0.57;;;12.60;1.00;;;;;;6180277;23;20024;-82
2023/11/11 12:33:04;;;;;;;0.98;0.70;;;12.70;1.00;;;;;;6202331;23;20119;-83
2023/11/11 12:35:41;;;;;;;0.93;0.63;;;13.00;1.00;;;;;;6230263;23;20319;-83
2023/11/11 12:38:24;;;;;;;0.88;0.63;;;13.10;1.00;;;;;;6204615;23;20031;-84
2023/11/11 12:40:52;;;;;;;0.90;0.60;;;13.20;1.00;;;;;;6204807;23;20032;-84
2023/11/11 12:43:20;;;;;;;0.40;0.40;;;13.30;1.00;;;;;;6180432;23;20016;-84
2023/11/11 12:45:48;;;;;;;1.25;0.70;;;13.40;1.00;;;;;;6179421;23;20023;-85
2023/11/11 12:48:16;;;;;;;0.77;0.60;;;13.30;1.00;;;;;;6180852;23;20035;-85
2023/11/11 12:50:44;;;;;;;0.55;0.50;;;13.50;1.00;;;;;;6204837;23;20031;-85
2023/11/11 12:53:13;;;;;;;0.40;0.38;;;13.70;1.00;;;;;;6205315;23;20032;-83
2023/11/11 12:55:41;;;;;;;0.45;0.40;;;13.90;1.00;;;;;;6229438;23;20028;-84
2023/11/11 12:58:20;;;;;;;0.50;0.30;;;13.70;1.00;;;;;;6205169;23;20542;-83
2023/11/11 13:00:54;;;;;;;0.28;0.28;;;13.80;1.00;;;;;;6204771;23;20024;-83
2023/11/11 13:03:26;;;;;;;0.47;0.40;;;14.10;1.00;;;;;;6180345;23;20031;-83
2023/11/11 13:05:54;;;;;;;0.30;0.30;;;14.30;1.00;;;;;;6202816;23;20030;-83
2023/11/11 13:08:22;;;;;;;0.77;0.70;;;14.30;1.00;;;;;;6228613;23;20043;-83